createdAt,value
2018-08-09T00:00:09.080Z,101046.00
2018-08-09T00:02:37.878Z,101049.00
2018-08-09T00:05:07.825Z,101051.00
2018-08-09T00:07:36.640Z,101046.00
2018-08-09T00:10:05.958Z,101044.00
2018-08-09T00:12:34.759Z,101048.00
2018-08-09T00:15:03.557Z,101050.00
2018-08-09T00:17:32.381Z,101042.00
2018-08-09T00:20:01.153Z,101048.00
2018-08-09T00:22:30.530Z,101047.00
2018-08-09T00:24:59.337Z,101049.00
2018-08-09T00:27:28.223Z,101054.00
2018-08-09T00:29:57.037Z,101057.00
2018-08-09T00:32:25.843Z,101051.00
2018-08-09T00:34:54.634Z,101058.00
2018-08-09T00:37:23.441Z,101055.00
2018-08-09T00:39:52.287Z,101056.00
2018-08-09T00:42:21.099Z,101072.00
2018-08-09T00:44:50.650Z,101076.00
2018-08-09T00:47:19.489Z,101075.00
2018-08-09T00:49:48.295Z,101076.00
2018-08-09T00:52:17.089Z,101079.00
2018-08-09T00:54:46.423Z,101083.00
2018-08-09T00:57:15.230Z,101083.00
2018-08-09T00:59:44.055Z,101079.00
2018-08-09T01:02:12.864Z,101090.00
2018-08-09T01:04:41.681Z,101085.00
2018-08-09T01:07:10.876Z,101096.00
2018-08-09T01:09:39.700Z,101070.00
2018-08-09T01:12:08.542Z,101094.00
2018-08-09T01:14:37.343Z,101108.00
2018-08-09T01:17:06.223Z,101113.00
2018-08-09T01:19:35.079Z,101114.00
2018-08-09T01:22:03.946Z,101103.00
2018-08-09T01:24:32.597Z,101108.00
2018-08-09T01:27:01.396Z,101111.00
2018-08-09T01:29:30.711Z,101118.00
2018-08-09T01:31:59.502Z,101130.00
2018-08-09T01:34:28.318Z,101123.00
2018-08-09T01:36:57.132Z,101135.00
2018-08-09T01:39:25.951Z,101139.00
2018-08-09T01:42:12.076Z,101142.00
2018-08-09T01:44:40.879Z,101147.00
2018-08-09T01:47:09.695Z,101151.00
2018-08-09T01:49:39.039Z,101153.00
2018-08-09T01:52:07.871Z,101151.00
2018-08-09T01:54:36.679Z,101144.00
2018-08-09T01:57:05.875Z,101151.00
2018-08-09T01:59:34.677Z,101155.00
2018-08-09T02:02:03.483Z,101159.00
2018-08-09T02:04:32.308Z,101150.00
2018-08-09T02:07:01.089Z,101153.00
2018-08-09T02:09:33.936Z,101162.00
2018-08-09T02:12:04.155Z,101153.00
2018-08-09T02:14:33.248Z,101155.00
2018-08-09T02:17:02.247Z,101150.00
2018-08-09T02:19:31.235Z,101153.00
2018-08-09T02:22:00.059Z,101167.00
2018-08-09T02:24:28.882Z,101163.00
2018-08-09T02:26:57.692Z,101158.00
2018-08-09T02:29:26.494Z,101153.00
2018-08-09T02:31:55.757Z,101167.00
2018-08-09T02:34:24.562Z,101169.00
2018-08-09T02:36:53.447Z,101169.00
2018-08-09T02:39:22.250Z,101171.00
2018-08-09T02:41:51.051Z,101177.00
2018-08-09T02:44:19.844Z,101187.00
2018-08-09T02:46:48.718Z,101187.00
2018-08-09T02:49:17.515Z,101190.00
2018-08-09T02:51:46.283Z,101186.00
2018-08-09T02:54:15.509Z,101190.00
2018-08-09T02:56:44.323Z,101188.00
2018-08-09T02:59:13.551Z,101196.00
2018-08-09T03:01:42.381Z,101182.00
2018-08-09T03:04:11.173Z,101191.00
2018-08-09T03:06:40.126Z,101187.00
2018-08-09T03:09:11.635Z,101190.00
2018-08-09T03:11:40.916Z,101189.00
2018-08-09T03:14:09.804Z,101165.00
2018-08-09T03:16:38.944Z,101188.00
2018-08-09T03:19:07.759Z,101181.00
2018-08-09T03:21:36.581Z,101185.00
2018-08-09T03:24:05.587Z,101182.00
2018-08-09T03:26:43.293Z,101189.00
2018-08-09T03:29:12.165Z,101192.00
2018-08-09T03:31:40.963Z,101196.00
2018-08-09T03:34:09.626Z,101190.00
2018-08-09T03:36:38.571Z,101193.00
2018-08-09T03:39:09.033Z,101207.00
2018-08-09T03:41:37.846Z,101203.00
2018-08-09T03:44:06.843Z,101205.00
2018-08-09T03:46:38.623Z,101216.00
2018-08-09T03:49:07.299Z,101208.00
2018-08-09T03:51:36.054Z,101210.00
2018-08-09T03:54:04.857Z,101214.00
2018-08-09T03:56:34.261Z,101213.00
2018-08-09T03:59:03.053Z,101212.00
2018-08-09T04:01:32.263Z,101213.00
2018-08-09T04:04:00.911Z,101208.00
2018-08-09T04:06:29.721Z,101215.00
2018-08-09T04:08:58.521Z,101204.00
2018-08-09T04:11:27.337Z,101203.00
2018-08-09T04:13:56.125Z,101216.00
2018-08-09T04:16:24.796Z,101214.00
2018-08-09T04:18:53.865Z,101205.00
2018-08-09T04:21:22.775Z,101209.00
2018-08-09T04:23:51.587Z,101206.00
2018-08-09T04:26:20.399Z,101191.00
2018-08-09T04:28:49.278Z,101206.00
2018-08-09T04:31:18.077Z,101217.00
2018-08-09T04:33:46.930Z,101217.00
2018-08-09T04:36:15.756Z,101216.00
2018-08-09T04:38:44.399Z,101221.00
2018-08-09T04:41:13.394Z,101227.00
2018-08-09T04:43:42.025Z,101221.00
2018-08-09T04:46:10.853Z,101220.00
2018-08-09T04:48:39.680Z,101216.00
2018-08-09T04:51:15.219Z,101224.00
2018-08-09T04:53:44.012Z,101213.00
2018-08-09T04:56:12.801Z,101217.00
2018-08-09T04:58:41.605Z,101222.00
2018-08-09T05:01:10.749Z,101226.00
2018-08-09T05:03:40.069Z,101221.00
2018-08-09T05:06:08.864Z,101221.00
2018-08-09T05:08:37.701Z,101231.00
2018-08-09T05:11:06.512Z,101231.00
2018-08-09T05:13:35.312Z,101222.00
2018-08-09T05:16:04.113Z,101223.00
2018-08-09T05:18:32.902Z,101232.00
2018-08-09T05:21:01.711Z,101228.00
2018-08-09T05:23:30.976Z,101236.00
2018-08-09T05:25:59.870Z,101240.00
2018-08-09T05:28:28.682Z,101228.00
2018-08-09T05:30:57.500Z,101227.00
2018-08-09T05:33:28.400Z,101230.00
2018-08-09T05:35:57.234Z,101236.00
2018-08-09T05:38:26.295Z,101239.00
2018-08-09T05:40:56.102Z,101232.00
2018-08-09T05:43:24.917Z,101232.00
2018-08-09T05:45:53.868Z,101224.00
2018-08-09T05:48:22.731Z,101234.00
2018-08-09T05:50:51.575Z,101228.00
2018-08-09T05:53:20.476Z,101230.00
2018-08-09T05:55:49.270Z,101237.00
2018-08-09T05:58:18.091Z,101225.00
2018-08-09T06:00:46.919Z,101229.00
2018-08-09T06:03:15.721Z,101234.00
2018-08-09T06:05:44.836Z,101226.00
2018-08-09T06:08:13.870Z,101231.00
2018-08-09T06:10:42.675Z,101226.00
2018-08-09T06:13:11.480Z,101234.00
2018-08-09T06:15:40.329Z,101236.00
2018-08-09T06:18:09.139Z,101241.00
2018-08-09T06:20:37.944Z,101230.00
2018-08-09T06:23:06.757Z,101232.00
2018-08-09T06:25:35.544Z,101239.00
2018-08-09T06:28:04.346Z,101245.00
2018-08-09T06:30:33.594Z,101235.00
2018-08-09T06:33:02.397Z,101235.00
2018-08-09T06:35:31.224Z,101241.00
2018-08-09T06:38:00.040Z,101242.00
2018-08-09T06:40:28.865Z,101245.00
2018-08-09T06:42:57.669Z,101246.00
2018-08-09T06:45:26.480Z,101246.00
2018-08-09T06:47:55.314Z,101248.00
2018-08-09T06:50:24.153Z,101251.00
2018-08-09T06:52:53.493Z,101259.00
2018-08-09T06:55:22.113Z,101254.00
2018-08-09T06:57:51.013Z,101268.00
2018-08-09T07:00:19.847Z,101260.00
2018-08-09T07:02:48.664Z,101262.00
2018-08-09T07:05:17.479Z,101267.00
2018-08-09T07:07:46.665Z,101266.00
2018-08-09T07:10:15.458Z,101262.00
2018-08-09T07:12:44.300Z,101268.00
2018-08-09T07:15:14.233Z,101270.00
2018-08-09T07:17:43.022Z,101271.00
2018-08-09T07:20:11.911Z,101259.00
2018-08-09T07:22:47.577Z,101279.00
2018-08-09T07:25:16.357Z,101266.00
2018-08-09T07:27:45.164Z,101265.00
2018-08-09T07:30:14.558Z,101265.00
2018-08-09T07:32:43.423Z,101266.00
2018-08-09T07:35:12.075Z,101270.00
2018-08-09T07:37:41.065Z,101269.00
2018-08-09T07:40:11.755Z,101265.00
2018-08-09T07:42:41.498Z,101270.00
2018-08-09T07:45:11.889Z,101266.00
2018-08-09T07:47:40.991Z,101268.00
2018-08-09T07:50:10.503Z,101273.00
2018-08-09T07:52:39.446Z,101256.00
2018-08-09T08:00:01.305Z,101271.00
2018-08-09T08:02:30.109Z,101261.00
2018-08-09T08:04:58.924Z,101253.00
2018-08-09T08:07:27.740Z,101244.00
2018-08-09T08:09:56.995Z,101252.00
2018-08-09T08:12:25.794Z,101263.00
2018-08-09T08:14:54.665Z,101259.00
2018-08-09T08:17:23.438Z,101255.00
2018-08-09T08:19:52.244Z,101251.00
2018-08-09T08:22:21.264Z,101258.00
2018-08-09T08:24:50.067Z,101250.00
2018-08-09T08:27:18.867Z,101254.00
2018-08-09T08:29:47.687Z,101251.00
2018-08-09T08:32:16.498Z,101253.00
2018-08-09T08:34:45.328Z,101259.00
2018-08-09T08:37:14.191Z,101255.00
2018-08-09T08:39:43.010Z,101260.00
2018-08-09T08:42:11.940Z,101259.00
2018-08-09T08:44:41.077Z,101246.00
2018-08-09T08:47:09.882Z,101256.00
2018-08-09T08:49:38.657Z,101254.00
2018-08-09T08:52:13.776Z,101254.00
2018-08-09T08:54:42.601Z,101250.00
2018-08-09T08:57:11.455Z,101255.00
2018-08-09T08:59:40.268Z,101247.00
2018-08-09T09:02:09.125Z,101247.00
2018-08-09T09:04:38.099Z,101246.00
2018-08-09T09:07:07.331Z,101240.00
2018-08-09T09:09:36.109Z,101226.00
2018-08-09T09:12:05.269Z,101230.00
2018-08-09T09:14:34.098Z,101217.00
2018-08-09T09:17:02.921Z,101225.00
2018-08-09T09:19:31.751Z,101232.00
2018-08-09T09:22:00.577Z,101225.00
2018-08-09T09:24:29.380Z,101226.00
2018-08-09T09:26:58.236Z,101236.00
2018-08-09T09:29:27.437Z,101221.00
2018-08-09T09:31:56.252Z,101206.00
2018-08-09T09:34:25.101Z,101207.00
2018-08-09T09:36:53.977Z,101203.00
2018-08-09T09:39:22.776Z,101201.00
2018-08-09T09:41:51.656Z,101203.00
2018-08-09T09:44:20.467Z,101203.00
2018-08-09T09:46:49.294Z,101196.00
2018-08-09T09:49:18.077Z,101199.00
2018-08-09T09:51:47.375Z,101195.00
2018-08-09T09:54:16.166Z,101190.00
2018-08-09T09:56:44.979Z,101191.00
2018-08-09T09:59:13.791Z,101187.00
2018-08-09T10:01:42.608Z,101186.00
2018-08-09T10:04:11.512Z,101171.00
2018-08-09T10:06:40.327Z,101171.00
2018-08-09T10:09:11.149Z,101168.00
2018-08-09T10:11:40.153Z,101158.00
2018-08-09T10:14:09.607Z,101162.00
2018-08-09T10:16:38.418Z,101160.00
2018-08-09T10:19:07.274Z,101162.00
2018-08-09T10:21:36.095Z,101156.00
2018-08-09T10:24:04.909Z,101144.00
2018-08-09T10:26:33.845Z,101145.00
2018-08-09T10:29:02.527Z,101139.00
2018-08-09T10:31:31.340Z,101131.00
2018-08-09T10:34:00.137Z,101134.00
2018-08-09T10:36:29.361Z,101149.00
2018-08-09T10:38:58.221Z,101141.00
2018-08-09T10:41:27.043Z,101136.00
2018-08-09T10:43:55.838Z,101132.00
2018-08-09T10:46:24.668Z,101131.00
2018-08-09T10:48:53.481Z,101117.00
2018-08-09T10:51:22.314Z,101114.00
2018-08-09T10:53:51.113Z,101115.00
2018-08-09T10:56:19.936Z,101107.00
2018-08-09T10:58:48.990Z,101107.00
2018-08-09T11:01:17.773Z,101103.00
2018-08-09T11:03:46.568Z,101093.00
2018-08-09T11:06:15.477Z,101096.00
2018-08-09T11:08:44.313Z,101096.00
2018-08-09T11:11:13.973Z,101083.00
2018-08-09T11:13:44.479Z,101083.00
2018-08-09T11:16:14.589Z,101081.00
2018-08-09T11:18:44.373Z,101084.00
2018-08-09T11:21:13.803Z,101078.00
2018-08-09T11:23:42.628Z,101069.00
2018-08-09T11:26:11.401Z,101071.00
2018-08-09T11:28:40.211Z,101070.00
2018-08-09T11:31:09.025Z,101065.00
2018-08-09T11:33:37.845Z,101059.00
2018-08-09T11:36:06.659Z,101057.00
2018-08-09T11:38:38.511Z,101046.00
2018-08-09T11:41:07.955Z,101049.00
2018-08-09T11:43:36.752Z,101043.00
2018-08-09T11:46:05.599Z,101045.00
2018-08-09T11:48:34.412Z,101032.00
2018-08-09T11:51:03.221Z,101032.00
2018-08-09T11:53:32.099Z,101031.00
2018-08-09T11:56:00.961Z,101017.00
2018-08-09T11:58:29.900Z,101019.00
2018-08-09T12:00:58.739Z,101015.00
2018-08-09T12:03:34.581Z,101008.00
2018-08-09T12:06:03.373Z,101013.00
2018-08-09T12:08:32.198Z,101016.00
2018-08-09T12:11:01.067Z,101007.00
2018-08-09T12:13:29.891Z,101009.00
2018-08-09T12:15:58.709Z,101008.00
2018-08-09T12:18:27.941Z,100994.00
2018-08-09T12:20:56.820Z,100997.00
2018-08-09T12:23:25.573Z,100987.00
2018-08-09T12:25:54.814Z,100984.00
2018-08-09T12:28:23.691Z,100980.00
2018-08-09T12:30:52.501Z,100969.00
2018-08-09T12:33:21.376Z,100976.00
2018-08-09T12:35:50.172Z,100968.00
2018-08-09T12:38:19.013Z,100975.00
2018-08-09T12:40:47.861Z,100969.00
2018-08-09T12:43:16.696Z,100961.00
2018-08-09T12:45:45.509Z,100960.00
2018-08-09T12:48:14.590Z,100962.00
2018-08-09T12:50:43.445Z,100955.00
2018-08-09T12:53:12.245Z,100959.00
2018-08-09T12:55:41.079Z,100953.00
2018-08-09T12:58:09.895Z,100946.00
2018-08-09T13:00:38.730Z,100935.00
2018-08-09T13:03:07.801Z,100937.00
2018-08-09T13:05:36.668Z,100933.00
2018-08-09T13:08:05.886Z,100924.00
2018-08-09T13:10:35.231Z,100925.00
2018-08-09T13:13:04.035Z,100913.00
2018-08-09T13:15:32.967Z,100909.00
2018-08-09T13:18:01.798Z,100901.00
2018-08-09T13:20:31.159Z,100899.00
2018-08-09T13:22:59.981Z,100909.00
2018-08-09T13:25:28.809Z,100903.00
2018-08-09T13:27:57.596Z,100890.00
2018-08-09T13:30:26.410Z,100887.00
2018-08-09T13:32:55.559Z,100885.00
2018-08-09T13:35:24.371Z,100881.00
2018-08-09T13:37:53.167Z,100883.00
2018-08-09T13:40:22.038Z,100873.00
2018-08-09T13:42:50.838Z,100873.00
2018-08-09T13:45:19.676Z,100872.00
2018-08-09T13:47:48.543Z,100868.00
2018-08-09T13:50:17.373Z,100856.00
2018-08-09T13:52:46.226Z,100855.00
2018-08-09T13:55:15.899Z,100853.00
2018-08-09T13:57:44.993Z,100846.00
2018-08-09T14:00:14.617Z,100845.00
2018-08-09T14:02:44.719Z,100843.00
2018-08-09T14:05:13.583Z,100836.00
2018-08-09T14:07:43.447Z,100827.00
2018-08-09T14:10:12.627Z,100827.00
2018-08-09T14:12:42.320Z,100828.00
2018-08-09T14:15:13.413Z,100815.00
2018-08-09T14:17:42.231Z,100814.00
2018-08-09T14:20:14.555Z,100812.00
2018-08-09T14:22:44.043Z,100805.00
2018-08-09T14:25:13.444Z,100799.00
2018-08-09T14:27:42.267Z,100807.00
2018-08-09T14:30:13.653Z,100813.00
2018-08-09T14:32:43.324Z,100801.00
2018-08-09T14:35:14.167Z,100798.00
2018-08-09T14:37:44.031Z,100781.00
2018-08-09T14:40:13.550Z,100778.00
2018-08-09T14:42:42.362Z,100784.00
2018-08-09T14:45:16.080Z,100790.00
2018-08-09T14:47:44.957Z,100783.00
2018-08-09T14:50:13.811Z,100782.00
2018-08-09T14:52:43.109Z,100778.00
2018-08-09T14:55:12.830Z,100772.00
2018-08-09T14:57:42.337Z,100764.00
2018-08-09T15:00:16.992Z,100763.00
2018-08-09T15:02:46.364Z,100760.00
2018-08-09T15:05:15.662Z,100675.00
2018-08-09T15:07:45.062Z,100763.00
2018-08-09T15:10:14.894Z,100757.00
2018-08-09T15:12:43.689Z,100755.00
2018-08-09T15:15:12.869Z,100751.00
2018-08-09T15:17:41.830Z,100752.00
2018-08-09T15:20:12.758Z,100743.00
2018-08-09T15:22:41.686Z,100740.00
2018-08-09T15:25:11.481Z,100741.00
2018-08-09T15:27:40.318Z,100736.00
2018-08-09T15:30:14.651Z,100733.00
2018-08-09T15:32:43.610Z,100731.00
2018-08-09T15:35:12.691Z,100722.00
2018-08-09T15:37:41.543Z,100714.00
2018-08-09T15:40:11.767Z,100717.00
2018-08-09T15:42:40.630Z,100712.00
2018-08-09T15:45:12.139Z,100708.00
2018-08-09T15:47:41.735Z,100706.00
2018-08-09T15:50:15.654Z,100711.00
2018-08-09T15:52:44.468Z,100700.00
2018-08-09T15:55:14.789Z,100703.00
2018-08-09T15:57:43.719Z,100700.00
2018-08-09T16:00:19.179Z,100703.00
2018-08-09T16:02:48.154Z,100698.00
2018-08-09T16:05:17.019Z,100694.00
2018-08-09T16:07:46.223Z,100695.00
2018-08-09T16:10:16.642Z,100690.00
2018-08-09T16:12:45.880Z,100687.00
2018-08-09T16:15:16.257Z,100679.00
2018-08-09T16:17:46.254Z,100672.00
2018-08-09T16:20:15.124Z,100681.00
2018-08-09T16:22:44.649Z,100672.00
2018-08-09T16:25:16.769Z,100675.00
2018-08-09T16:27:45.676Z,100668.00
2018-08-09T16:30:18.493Z,100664.00
2018-08-09T16:32:47.406Z,100657.00
2018-08-09T16:35:16.245Z,100654.00
2018-08-09T16:37:45.478Z,100646.00
2018-08-09T16:40:17.667Z,100630.00
2018-08-09T16:42:46.559Z,100623.00
2018-08-09T16:45:16.988Z,100627.00
2018-08-09T16:47:45.961Z,100635.00
2018-08-09T16:50:18.565Z,100622.00
2018-08-09T16:52:48.463Z,100624.00
2018-08-09T16:55:18.486Z,100623.00
2018-08-09T16:57:47.331Z,100622.00
2018-08-09T17:00:19.278Z,100612.00
2018-08-09T17:02:48.256Z,100620.00
2018-08-09T17:05:20.118Z,100613.00
2018-08-09T17:07:49.382Z,100611.00
2018-08-09T17:10:20.323Z,100602.00
2018-08-09T17:12:49.215Z,100602.00
2018-08-09T17:15:23.677Z,100592.00
2018-08-09T17:17:52.881Z,100595.00
2018-08-09T17:20:27.663Z,100581.00
2018-08-09T17:22:56.805Z,100582.00
2018-08-09T17:25:26.106Z,100570.00
2018-08-09T17:27:55.265Z,100571.00
2018-08-09T17:30:26.533Z,100569.00
2018-08-09T17:32:56.235Z,100573.00
2018-08-09T17:35:25.079Z,100561.00
2018-08-09T17:37:54.508Z,100554.00
2018-08-09T17:40:29.111Z,100549.00
2018-08-09T17:42:58.825Z,100549.00
2018-08-09T17:45:35.869Z,100541.00
2018-08-09T17:48:05.433Z,100532.00
2018-08-09T17:50:34.269Z,100526.00
2018-08-09T17:53:03.639Z,100526.00
2018-08-09T17:55:33.077Z,100526.00
2018-08-09T17:58:01.914Z,100535.00
2018-08-09T18:00:32.244Z,100538.00
2018-08-09T18:03:01.065Z,100537.00
2018-08-09T18:05:29.973Z,100538.00
2018-08-09T18:08:00.036Z,100533.00
2018-08-09T18:10:31.430Z,100534.00
2018-08-09T18:13:00.285Z,100533.00
2018-08-09T18:15:29.916Z,100524.00
2018-08-09T18:17:59.277Z,100511.00
2018-08-09T18:20:29.950Z,100515.00
2018-08-09T18:22:59.171Z,100512.00
2018-08-09T18:25:28.356Z,100524.00
2018-08-09T18:27:57.616Z,100527.00
2018-08-09T18:30:26.505Z,100515.00
2018-08-09T18:32:55.548Z,100512.00
2018-08-09T18:35:25.064Z,100523.00
2018-08-09T18:37:53.894Z,100516.00
2018-08-09T18:40:25.139Z,100523.00
2018-08-09T18:42:54.428Z,100513.00
2018-08-09T18:45:23.542Z,100523.00
2018-08-09T18:47:52.373Z,100524.00
2018-08-09T18:50:23.987Z,100524.00
2018-08-09T18:52:52.812Z,100533.00
2018-08-09T18:55:21.633Z,100529.00
2018-08-09T18:57:50.499Z,100543.00
2018-08-09T19:00:24.505Z,100542.00
2018-08-09T19:02:53.561Z,100535.00
2018-08-09T19:05:22.563Z,100550.00
2018-08-09T19:07:51.376Z,100540.00
2018-08-09T19:10:24.949Z,100537.00
2018-08-09T19:12:53.856Z,100532.00
2018-08-09T19:15:22.684Z,100524.00
2018-08-09T19:17:51.813Z,100527.00
2018-08-09T19:20:26.213Z,100524.00
2018-08-09T19:22:55.232Z,100524.00
2018-08-09T19:25:24.131Z,100526.00
2018-08-09T19:27:53.291Z,100522.00
2018-08-09T19:30:24.617Z,100527.00
2018-08-09T19:32:53.464Z,100522.00
2018-08-09T19:35:22.931Z,100524.00
2018-08-09T19:37:51.822Z,100530.00
2018-08-09T19:40:26.099Z,100539.00
2018-08-09T19:42:55.005Z,100539.00
2018-08-09T19:45:23.838Z,100536.00
2018-08-09T19:47:52.681Z,100545.00
2018-08-09T19:50:23.277Z,100544.00
2018-08-09T19:52:52.145Z,100567.00
2018-08-09T19:55:22.553Z,100620.00
2018-08-09T19:57:51.892Z,100675.00
2018-08-09T20:00:24.139Z,100715.00
2018-08-09T20:02:52.965Z,100724.00
2018-08-09T20:05:21.889Z,100751.00
2018-08-09T20:07:50.759Z,100784.00
2018-08-09T20:10:20.246Z,100794.00
2018-08-09T20:12:49.429Z,100773.00
2018-08-09T20:15:21.379Z,100770.00
2018-08-09T20:17:50.237Z,100758.00
2018-08-09T20:20:21.705Z,100772.00
2018-08-09T20:22:50.703Z,100770.00
2018-08-09T20:25:19.443Z,100747.00
2018-08-09T20:27:48.323Z,100747.00
2018-08-09T20:30:18.761Z,100762.00
2018-08-09T20:32:54.515Z,100761.00
2018-08-09T20:35:24.361Z,100764.00
2018-08-09T20:37:53.393Z,100763.00
2018-08-09T20:40:23.175Z,100756.00
2018-08-09T20:42:52.876Z,100756.00
2018-08-09T20:45:22.806Z,100765.00
2018-08-09T20:47:51.625Z,100777.00
2018-08-09T20:50:22.565Z,100785.00
2018-08-09T20:52:51.763Z,100790.00
2018-08-09T20:55:20.633Z,100806.00
2018-08-09T20:57:50.269Z,100832.00
2018-08-09T21:00:22.112Z,100815.00
2018-08-09T21:02:52.345Z,100805.00
2018-08-09T21:05:30.714Z,100783.00
2018-08-09T21:07:59.955Z,100759.00
2018-08-09T21:10:29.357Z,100743.00
2018-08-09T21:12:58.310Z,100749.00
2018-08-09T21:15:27.316Z,100740.00
2018-08-09T21:17:56.086Z,100743.00
2018-08-09T21:20:24.999Z,100750.00
2018-08-09T21:22:53.925Z,100745.00
2018-08-09T21:25:23.321Z,100733.00
2018-08-09T21:27:52.267Z,100729.00
2018-08-09T21:30:23.277Z,100701.00
2018-08-09T21:32:52.301Z,100675.00
2018-08-09T21:35:21.829Z,100603.00
2018-08-09T21:37:50.659Z,100686.00
2018-08-09T21:40:19.546Z,100690.00
2018-08-09T21:42:48.349Z,100688.00
2018-08-09T21:45:19.468Z,100690.00
2018-08-09T21:47:48.269Z,100701.00
2018-08-09T21:50:21.335Z,100705.00
2018-08-09T21:52:50.168Z,100716.00
2018-08-09T21:55:19.002Z,100724.00
2018-08-09T21:57:48.231Z,100727.00
2018-08-09T22:00:59.909Z,100732.00
2018-08-09T22:03:31.339Z,100743.00
2018-08-09T22:06:05.607Z,100739.00
2018-08-09T22:08:39.791Z,100754.00
2018-08-09T22:11:15.938Z,100760.00
2018-08-09T22:13:50.025Z,100768.00
2018-08-09T22:16:24.386Z,100769.00
2018-08-09T22:18:58.709Z,100772.00
2018-08-09T22:21:32.940Z,100784.00
2018-08-09T22:24:02.111Z,100788.00
2018-08-09T22:26:30.982Z,100797.00
2018-08-09T22:28:59.819Z,100793.00
2018-08-09T22:31:29.298Z,100799.00
2018-08-09T22:33:58.209Z,100794.00
2018-08-09T22:36:27.007Z,100812.00
2018-08-09T22:38:55.845Z,100809.00
2018-08-09T22:41:24.665Z,100817.00
2018-08-09T22:43:53.477Z,100793.00
2018-08-09T22:46:22.407Z,100818.00
2018-08-09T22:48:51.230Z,100825.00
2018-08-09T22:51:20.025Z,100845.00
2018-08-09T22:53:48.824Z,100848.00
2018-08-09T22:56:17.631Z,100862.00
2018-08-09T22:58:46.433Z,100859.00
2018-08-09T23:01:15.367Z,100857.00
2018-08-09T23:03:44.223Z,100860.00
2018-08-09T23:06:14.077Z,100869.00
2018-08-09T23:08:43.265Z,100874.00
2018-08-09T23:11:12.075Z,100873.00
2018-08-09T23:13:40.896Z,100882.00
2018-08-09T23:16:09.738Z,100883.00
2018-08-09T23:18:38.542Z,100881.00
2018-08-09T23:21:07.344Z,100888.00
2018-08-09T23:23:36.174Z,100884.00
2018-08-09T23:26:05.273Z,100884.00
2018-08-09T23:28:34.070Z,100884.00
2018-08-09T23:31:03.041Z,100880.00
2018-08-09T23:33:32.474Z,100871.00
2018-08-09T23:36:01.281Z,100883.00
2018-08-09T23:38:30.148Z,100881.00
2018-08-09T23:40:58.959Z,100892.00
2018-08-09T23:43:27.784Z,100885.00
2018-08-09T23:45:56.649Z,100890.00
2018-08-09T23:48:25.480Z,100890.00
2018-08-09T23:50:54.290Z,100892.00
2018-08-09T23:53:23.235Z,100892.00
2018-08-09T23:55:52.456Z,100894.00
2018-08-09T23:58:21.256Z,100900.00
